sensor_id;sensor_type;location;lat;lon;timestamp;temperature;humidity
64715;DHT22;51144;53.002;6.506;2023-04-01T00:00:06;10.00;99.90
64715;DHT22;51144;53.002;6.506;2023-04-01T00:02:32;10.00;99.90
64715;DHT22;51144;53.002;6.506;2023-04-01T00:04:58;10.00;99.90
64715;DHT22;51144;53.002;6.506;2023-04-01T00:07:23;9.90;99.90
64715;DHT22;51144;53.002;6.506;2023-04-01T00:09:49;10.00;99.90
64715;DHT22;51144;53.002;6.506;2023-04-01T00:12:15;9.90;99.90
64715;DHT22;51144;53.002;6.506;2023-04-01T00:14:41;10.00;99.90
64715;DHT22;51144;53.002;6.506;2023-04-01T00:17:06;9.90;99.90
64715;DHT22;51144;53.002;6.506;2023-04-01T00:19:32;10.00;99.90
64715;DHT22;51144;53.002;6.506;2023-04-01T00:21:58;9.90;99.90
64715;DHT22;51144;53.002;6.506;2023-04-01T00:24:24;10.00;99.90
64715;DHT22;51144;53.002;6.506;2023-04-01T00:26:49;9.90;99.90
64715;DHT22;51144;53.002;6.506;2023-04-01T00:29:15;10.00;99.90
64715;DHT22;51144;53.002;6.506;2023-04-01T00:31:41;10.00;99.90
64715;DHT22;51144;53.002;6.506;2023-04-01T00:34:06;10.00;99.90
64715;DHT22;51144;53.002;6.506;2023-04-01T00:36:32;10.00;99.90
64715;DHT22;51144;53.002;6.506;2023-04-01T00:38:58;10.00;99.90
64715;DHT22;51144;53.002;6.506;2023-04-01T00:41:26;10.00;99.90
64715;DHT22;51144;53.002;6.506;2023-04-01T00:44:20;10.00;99.90
64715;DHT22;51144;53.002;6.506;2023-04-01T00:46:46;10.00;99.90
64715;DHT22;51144;53.002;6.506;2023-04-01T00:49:13;10.00;99.90
64715;DHT22;51144;53.002;6.506;2023-04-01T00:51:41;10.00;99.90
64715;DHT22;51144;53.002;6.506;2023-04-01T00:54:07;10.00;99.90
64715;DHT22;51144;53.002;6.506;2023-04-01T00:56:37;10.00;99.90
64715;DHT22;51144;53.002;6.506;2023-04-01T00:59:10;10.00;99.90
64715;DHT22;51144;53.002;6.506;2023-04-01T01:01:36;10.00;99.90
64715;DHT22;51144;53.002;6.506;2023-04-01T01:04:02;10.00;99.90
64715;DHT22;51144;53.002;6.506;2023-04-01T01:06:46;9.90;99.90
64715;DHT22;51144;53.002;6.506;2023-04-01T01:09:39;9.90;99.90
64715;DHT22;51144;53.002;6.506;2023-04-01T01:12:20;9.90;99.90
64715;DHT22;51144;53.002;6.506;2023-04-01T01:17:46;9.90;99.90
64715;DHT22;51144;53.002;6.506;2023-04-01T01:20:46;9.90;99.90
64715;DHT22;51144;53.002;6.506;2023-04-01T01:31:37;9.90;99.90
64715;DHT22;51144;53.002;6.506;2023-04-01T01:37:02;9.90;99.90
64715;DHT22;51144;53.002;6.506;2023-04-01T01:39:31;9.90;99.90
64715;DHT22;51144;53.002;6.506;2023-04-01T01:42:02;9.80;99.90
64715;DHT22;51144;53.002;6.506;2023-04-01T01:44:30;9.80;99.90
64715;DHT22;51144;53.002;6.506;2023-04-01T01:46:56;9.80;99.90
64715;DHT22;51144;53.002;6.506;2023-04-01T01:49:23;9.80;99.90
64715;DHT22;51144;53.002;6.506;2023-04-01T01:51:50;9.80;99.90
64715;DHT22;51144;53.002;6.506;2023-04-01T01:54:17;9.80;99.90
64715;DHT22;51144;53.002;6.506;2023-04-01T01:56:45;9.80;99.90
64715;DHT22;51144;53.002;6.506;2023-04-01T01:59:14;9.70;99.90
64715;DHT22;51144;53.002;6.506;2023-04-01T02:01:45;9.70;99.90
64715;DHT22;51144;53.002;6.506;2023-04-01T02:04:13;9.70;99.90
64715;DHT22;51144;53.002;6.506;2023-04-01T02:06:47;9.60;99.90
64715;DHT22;51144;53.002;6.506;2023-04-01T02:09:15;9.60;99.90
64715;DHT22;51144;53.002;6.506;2023-04-01T02:11:48;9.60;99.90
64715;DHT22;51144;53.002;6.506;2023-04-01T02:14:20;9.60;99.90
64715;DHT22;51144;53.002;6.506;2023-04-01T02:19:47;9.60;99.90
64715;DHT22;51144;53.002;6.506;2023-04-01T02:22:20;9.60;99.90
64715;DHT22;51144;53.002;6.506;2023-04-01T02:24:48;9.60;99.90
64715;DHT22;51144;53.002;6.506;2023-04-01T02:27:14;9.60;99.90
64715;DHT22;51144;53.002;6.506;2023-04-01T02:29:40;9.60;99.90
64715;DHT22;51144;53.002;6.506;2023-04-01T02:32:07;9.60;99.90
64715;DHT22;51144;53.002;6.506;2023-04-01T02:34:33;9.60;99.90
64715;DHT22;51144;53.002;6.506;2023-04-01T02:37:00;9.60;99.90
64715;DHT22;51144;53.002;6.506;2023-04-01T02:39:25;9.60;99.90
64715;DHT22;51144;53.002;6.506;2023-04-01T02:41:52;9.60;99.90
64715;DHT22;51144;53.002;6.506;2023-04-01T02:44:18;9.60;99.90
64715;DHT22;51144;53.002;6.506;2023-04-01T02:46:44;9.60;99.90
64715;DHT22;51144;53.002;6.506;2023-04-01T02:49:10;9.60;99.90
64715;DHT22;51144;53.002;6.506;2023-04-01T02:51:35;9.60;99.90
64715;DHT22;51144;53.002;6.506;2023-04-01T02:54:01;9.60;99.90
64715;DHT22;51144;53.002;6.506;2023-04-01T02:56:27;9.60;99.90
64715;DHT22;51144;53.002;6.506;2023-04-01T02:58:53;9.60;99.90
64715;DHT22;51144;53.002;6.506;2023-04-01T03:01:19;9.50;99.90
64715;DHT22;51144;53.002;6.506;2023-04-01T03:03:45;9.60;99.90
64715;DHT22;51144;53.002;6.506;2023-04-01T03:06:13;9.60;99.90
64715;DHT22;51144;53.002;6.506;2023-04-01T03:08:39;9.50;99.90
64715;DHT22;51144;53.002;6.506;2023-04-01T03:11:05;9.60;99.90
64715;DHT22;51144;53.002;6.506;2023-04-01T03:13:31;9.50;99.90
64715;DHT22;51144;53.002;6.506;2023-04-01T03:15:57;9.50;99.90
64715;DHT22;51144;53.002;6.506;2023-04-01T03:18:23;9.50;99.90
64715;DHT22;51144;53.002;6.506;2023-04-01T03:20:48;9.50;99.90
64715;DHT22;51144;53.002;6.506;2023-04-01T03:23:14;9.50;99.90
64715;DHT22;51144;53.002;6.506;2023-04-01T03:25:41;9.50;99.90
64715;DHT22;51144;53.002;6.506;2023-04-01T03:28:07;9.50;99.90
64715;DHT22;51144;53.002;6.506;2023-04-01T03:30:33;9.50;99.90
64715;DHT22;51144;53.002;6.506;2023-04-01T03:32:59;9.40;99.90
64715;DHT22;51144;53.002;6.506;2023-04-01T03:35:26;9.40;99.90
64715;DHT22;51144;53.002;6.506;2023-04-01T03:37:52;9.40;99.90
64715;DHT22;51144;53.002;6.506;2023-04-01T03:40:18;9.40;99.90
64715;DHT22;51144;53.002;6.506;2023-04-01T03:42:44;9.40;99.90
64715;DHT22;51144;53.002;6.506;2023-04-01T03:45:10;9.50;99.90
64715;DHT22;51144;53.002;6.506;2023-04-01T03:47:38;9.40;99.90
64715;DHT22;51144;53.002;6.506;2023-04-01T03:50:04;9.50;99.90
64715;DHT22;51144;53.002;6.506;2023-04-01T03:52:30;9.50;99.90
64715;DHT22;51144;53.002;6.506;2023-04-01T03:54:56;9.50;99.90
64715;DHT22;51144;53.002;6.506;2023-04-01T03:57:21;9.50;99.90
64715;DHT22;51144;53.002;6.506;2023-04-01T03:59:47;9.50;99.90
64715;DHT22;51144;53.002;6.506;2023-04-01T04:02:13;9.50;99.90
64715;DHT22;51144;53.002;6.506;2023-04-01T04:04:38;9.50;99.90
64715;DHT22;51144;53.002;6.506;2023-04-01T04:07:05;9.50;99.90
64715;DHT22;51144;53.002;6.506;2023-04-01T04:09:31;9.50;99.90
64715;DHT22;51144;53.002;6.506;2023-04-01T04:11:57;9.60;99.90
64715;DHT22;51144;53.002;6.506;2023-04-01T04:14:23;9.60;99.90
64715;DHT22;51144;53.002;6.506;2023-04-01T04:16:49;9.60;99.90
64715;DHT22;51144;53.002;6.506;2023-04-01T04:19:14;9.60;99.90
64715;DHT22;51144;53.002;6.506;2023-04-01T04:21:41;9.60;99.90
64715;DHT22;51144;53.002;6.506;2023-04-01T04:24:08;9.60;99.90
64715;DHT22;51144;53.002;6.506;2023-04-01T04:26:34;9.70;99.90
64715;DHT22;51144;53.002;6.506;2023-04-01T04:29:00;9.70;99.90
64715;DHT22;51144;53.002;6.506;2023-04-01T04:31:27;9.70;99.90
64715;DHT22;51144;53.002;6.506;2023-04-01T04:33:52;9.70;99.90
64715;DHT22;51144;53.002;6.506;2023-04-01T04:36:19;9.60;99.90
64715;DHT22;51144;53.002;6.506;2023-04-01T04:38:46;9.60;99.90
64715;DHT22;51144;53.002;6.506;2023-04-01T04:41:17;9.60;99.90
64715;DHT22;51144;53.002;6.506;2023-04-01T04:43:49;9.60;99.90
64715;DHT22;51144;53.002;6.506;2023-04-01T04:46:16;9.70;99.90
64715;DHT22;51144;53.002;6.506;2023-04-01T04:48:41;9.70;99.90
64715;DHT22;51144;53.002;6.506;2023-04-01T04:51:13;9.60;99.90
64715;DHT22;51144;53.002;6.506;2023-04-01T04:53:38;9.70;99.90
64715;DHT22;51144;53.002;6.506;2023-04-01T04:56:04;9.70;99.90
64715;DHT22;51144;53.002;6.506;2023-04-01T04:58:29;9.70;99.90
64715;DHT22;51144;53.002;6.506;2023-04-01T05:00:55;9.70;99.90
64715;DHT22;51144;53.002;6.506;2023-04-01T05:03:21;9.60;99.90
64715;DHT22;51144;53.002;6.506;2023-04-01T05:05:52;9.70;99.90
64715;DHT22;51144;53.002;6.506;2023-04-01T05:08:18;9.70;99.90
64715;DHT22;51144;53.002;6.506;2023-04-01T05:10:44;9.70;99.90
64715;DHT22;51144;53.002;6.506;2023-04-01T05:13:10;9.70;99.90
64715;DHT22;51144;53.002;6.506;2023-04-01T05:15:37;9.70;99.90
64715;DHT22;51144;53.002;6.506;2023-04-01T05:18:03;9.70;99.90
64715;DHT22;51144;53.002;6.506;2023-04-01T05:20:29;9.70;99.90
64715;DHT22;51144;53.002;6.506;2023-04-01T05:22:58;9.70;99.90
64715;DHT22;51144;53.002;6.506;2023-04-01T05:25:24;9.70;99.90
64715;DHT22;51144;53.002;6.506;2023-04-01T05:27:50;9.70;99.90
64715;DHT22;51144;53.002;6.506;2023-04-01T05:30:16;9.70;99.90
64715;DHT22;51144;53.002;6.506;2023-04-01T05:32:42;9.70;99.90
64715;DHT22;51144;53.002;6.506;2023-04-01T05:35:09;9.70;99.90
64715;DHT22;51144;53.002;6.506;2023-04-01T05:37:36;9.70;99.90
64715;DHT22;51144;53.002;6.506;2023-04-01T05:40:02;9.70;99.90
64715;DHT22;51144;53.002;6.506;2023-04-01T05:42:28;9.70;99.90
64715;DHT22;51144;53.002;6.506;2023-04-01T05:44:54;9.70;99.90
64715;DHT22;51144;53.002;6.506;2023-04-01T05:47:21;9.70;99.90
64715;DHT22;51144;53.002;6.506;2023-04-01T05:49:47;9.70;99.90
64715;DHT22;51144;53.002;6.506;2023-04-01T05:52:13;9.70;99.90
64715;DHT22;51144;53.002;6.506;2023-04-01T05:54:38;9.70;99.90
64715;DHT22;51144;53.002;6.506;2023-04-01T05:57:04;9.70;99.90
64715;DHT22;51144;53.002;6.506;2023-04-01T05:59:30;9.70;99.90
64715;DHT22;51144;53.002;6.506;2023-04-01T06:01:57;9.70;99.90
64715;DHT22;51144;53.002;6.506;2023-04-01T06:04:23;9.70;99.90
64715;DHT22;51144;53.002;6.506;2023-04-01T06:06:49;9.70;99.90
64715;DHT22;51144;53.002;6.506;2023-04-01T06:09:22;9.70;99.90
64715;DHT22;51144;53.002;6.506;2023-04-01T06:17:56;9.60;99.90
64715;DHT22;51144;53.002;6.506;2023-04-01T06:56:18;9.60;99.90
64715;DHT22;51144;53.002;6.506;2023-04-01T06:58:53;9.60;99.90
64715;DHT22;51144;53.002;6.506;2023-04-01T07:01:34;9.70;99.90
64715;DHT22;51144;53.002;6.506;2023-04-01T07:06:48;9.70;99.90
64715;DHT22;51144;53.002;6.506;2023-04-01T07:09:30;9.70;99.90
64715;DHT22;51144;53.002;6.506;2023-04-01T07:12:06;9.70;99.90
64715;DHT22;51144;53.002;6.506;2023-04-01T07:14:40;9.70;99.90
64715;DHT22;51144;53.002;6.506;2023-04-01T07:17:28;9.70;99.90
64715;DHT22;51144;53.002;6.506;2023-04-01T07:20:02;9.80;99.90
64715;DHT22;51144;53.002;6.506;2023-04-01T07:22:34;9.80;99.90
64715;DHT22;51144;53.002;6.506;2023-04-01T07:25:11;9.80;99.90
64715;DHT22;51144;53.002;6.506;2023-04-01T07:27:37;9.90;99.90
64715;DHT22;51144;53.002;6.506;2023-04-01T07:30:16;9.90;99.90
64715;DHT22;51144;53.002;6.506;2023-04-01T07:32:49;10.00;99.90
64715;DHT22;51144;53.002;6.506;2023-04-01T07:49:06;10.20;99.90
64715;DHT22;51144;53.002;6.506;2023-04-01T08:08:07;10.70;99.90
64715;DHT22;51144;53.002;6.506;2023-04-01T08:10:45;10.70;99.90
64715;DHT22;51144;53.002;6.506;2023-04-01T08:21:38;11.00;99.90
64715;DHT22;51144;53.002;6.506;2023-04-01T08:26:49;11.10;99.90
64715;DHT22;51144;53.002;6.506;2023-04-01T08:29:23;11.10;99.90
64715;DHT22;51144;53.002;6.506;2023-04-01T08:32:08;11.10;99.90
64715;DHT22;51144;53.002;6.506;2023-04-01T08:34:40;11.10;99.90
64715;DHT22;51144;53.002;6.506;2023-04-01T08:37:12;11.20;99.90
64715;DHT22;51144;53.002;6.506;2023-04-01T09:17:07;10.70;99.90
64715;DHT22;51144;53.002;6.506;2023-04-01T09:28:28;10.80;99.90
64715;DHT22;51144;53.002;6.506;2023-04-01T09:37:07;11.00;99.90
64715;DHT22;51144;53.002;6.506;2023-04-01T09:42:34;11.20;99.90
64715;DHT22;51144;53.002;6.506;2023-04-01T09:48:15;11.20;99.90
64715;DHT22;51144;53.002;6.506;2023-04-01T09:53:35;11.20;99.90
64715;DHT22;51144;53.002;6.506;2023-04-01T10:07:50;11.50;99.90
64715;DHT22;51144;53.002;6.506;2023-04-01T10:10:47;11.60;99.90
64715;DHT22;51144;53.002;6.506;2023-04-01T10:13:42;11.50;99.90
64715;DHT22;51144;53.002;6.506;2023-04-01T10:31:04;10.60;99.90
64715;DHT22;51144;53.002;6.506;2023-04-01T10:59:02;10.00;99.90
64715;DHT22;51144;53.002;6.506;2023-04-01T11:12:31;10.10;99.90
64715;DHT22;51144;53.002;6.506;2023-04-01T11:21:02;10.10;99.90
64715;DHT22;51144;53.002;6.506;2023-04-01T11:23:41;10.10;99.90
64715;DHT22;51144;53.002;6.506;2023-04-01T11:40:12;9.90;99.90
64715;DHT22;51144;53.002;6.506;2023-04-01T11:42:51;9.90;99.90
64715;DHT22;51144;53.002;6.506;2023-04-01T11:45:29;9.90;99.90
64715;DHT22;51144;53.002;6.506;2023-04-01T11:48:27;9.80;99.90
64715;DHT22;51144;53.002;6.506;2023-04-01T12:08:02;10.00;99.90
64715;DHT22;51144;53.002;6.506;2023-04-01T12:10:55;10.00;99.90
64715;DHT22;51144;53.002;6.506;2023-04-01T12:13:36;10.00;99.90
64715;DHT22;51144;53.002;6.506;2023-04-01T12:16:29;10.10;99.90
64715;DHT22;51144;53.002;6.506;2023-04-01T12:19:30;10.10;99.90
64715;DHT22;51144;53.002;6.506;2023-04-01T12:22:28;10.10;99.90
64715;DHT22;51144;53.002;6.506;2023-04-01T12:28:20;10.10;99.90
64715;DHT22;51144;53.002;6.506;2023-04-01T12:30:54;10.20;99.90
64715;DHT22;51144;53.002;6.506;2023-04-01T12:33:38;10.20;99.90
64715;DHT22;51144;53.002;6.506;2023-04-01T12:55:45;10.00;99.90
64715;DHT22;51144;53.002;6.506;2023-04-01T12:58:35;10.00;99.90
64715;DHT22;51144;53.002;6.506;2023-04-01T13:01:25;9.90;99.90
64715;DHT22;51144;53.002;6.506;2023-04-01T13:04:05;10.00;99.90
64715;DHT22;51144;53.002;6.506;2023-04-01T13:12:40;9.90;99.90
64715;DHT22;51144;53.002;6.506;2023-04-01T13:20:49;9.80;99.90
64715;DHT22;51144;53.002;6.506;2023-04-01T13:23:32;9.70;99.90
64715;DHT22;51144;53.002;6.506;2023-04-01T13:42:24;9.50;99.90
64715;DHT22;51144;53.002;6.506;2023-04-01T13:55:44;9.40;99.90
64715;DHT22;51144;53.002;6.506;2023-04-01T13:58:28;9.40;99.90
64715;DHT22;51144;53.002;6.506;2023-04-01T14:01:25;9.40;99.90
64715;DHT22;51144;53.002;6.506;2023-04-01T14:04:03;9.40;99.90
64715;DHT22;51144;53.002;6.506;2023-04-01T14:07:00;9.40;99.90
64715;DHT22;51144;53.002;6.506;2023-04-01T14:24:14;9.30;99.90
64715;DHT22;51144;53.002;6.506;2023-04-01T14:30:02;9.30;99.90
64715;DHT22;51144;53.002;6.506;2023-04-01T14:35:24;9.20;99.90
64715;DHT22;51144;53.002;6.506;2023-04-01T14:51:02;9.30;99.90
64715;DHT22;51144;53.002;6.506;2023-04-01T14:53:33;9.30;99.90
64715;DHT22;51144;53.002;6.506;2023-04-01T14:56:01;9.20;99.90
64715;DHT22;51144;53.002;6.506;2023-04-01T14:58:51;9.20;99.90
64715;DHT22;51144;53.002;6.506;2023-04-01T15:01:44;9.10;99.90
64715;DHT22;51144;53.002;6.506;2023-04-01T15:07:05;9.10;99.90
64715;DHT22;51144;53.002;6.506;2023-04-01T15:29:00;8.90;99.90
64715;DHT22;51144;53.002;6.506;2023-04-01T15:31:48;8.90;99.90
64715;DHT22;51144;53.002;6.506;2023-04-01T15:35:03;8.90;99.90
64715;DHT22;51144;53.002;6.506;2023-04-01T15:37:50;8.80;99.90
64715;DHT22;51144;53.002;6.506;2023-04-01T15:40:24;8.70;99.90
64715;DHT22;51144;53.002;6.506;2023-04-01T15:48:26;8.70;99.90
64715;DHT22;51144;53.002;6.506;2023-04-01T15:51:02;8.60;99.90
64715;DHT22;51144;53.002;6.506;2023-04-01T15:54:06;8.60;99.90
64715;DHT22;51144;53.002;6.506;2023-04-01T16:08:24;8.30;99.90
64715;DHT22;51144;53.002;6.506;2023-04-01T16:11:19;8.30;99.90
64715;DHT22;51144;53.002;6.506;2023-04-01T16:14:09;8.30;99.90
64715;DHT22;51144;53.002;6.506;2023-04-01T16:24:33;8.20;99.90
64715;DHT22;51144;53.002;6.506;2023-04-01T16:29:53;8.10;99.90
64715;DHT22;51144;53.002;6.506;2023-04-01T16:38:25;8.00;99.90
64715;DHT22;51144;53.002;6.506;2023-04-01T16:43:42;8.00;99.90
64715;DHT22;51144;53.002;6.506;2023-04-01T16:51:37;8.00;99.90
64715;DHT22;51144;53.002;6.506;2023-04-01T16:54:31;8.00;99.90
64715;DHT22;51144;53.002;6.506;2023-04-01T17:02:15;7.80;99.90
64715;DHT22;51144;53.002;6.506;2023-04-01T17:05:12;7.80;99.90
64715;DHT22;51144;53.002;6.506;2023-04-01T17:07:58;7.70;99.90
64715;DHT22;51144;53.002;6.506;2023-04-01T17:25:20;7.60;99.90
64715;DHT22;51144;53.002;6.506;2023-04-01T17:30:49;7.50;99.90
64715;DHT22;51144;53.002;6.506;2023-04-01T17:33:40;7.50;99.90
64715;DHT22;51144;53.002;6.506;2023-04-01T17:40:11;7.40;99.90
64715;DHT22;51144;53.002;6.506;2023-04-01T17:42:46;7.40;99.90
64715;DHT22;51144;53.002;6.506;2023-04-01T17:45:26;7.40;99.90
64715;DHT22;51144;53.002;6.506;2023-04-01T17:50:51;7.30;99.90
64715;DHT22;51144;53.002;6.506;2023-04-01T17:55:53;7.30;99.90
64715;DHT22;51144;53.002;6.506;2023-04-01T18:01:14;7.30;99.90
64715;DHT22;51144;53.002;6.506;2023-04-01T18:17:44;7.00;99.90
64715;DHT22;51144;53.002;6.506;2023-04-01T18:22:54;6.90;99.90
64715;DHT22;51144;53.002;6.506;2023-04-01T18:25:43;6.90;99.90
64715;DHT22;51144;53.002;6.506;2023-04-01T18:31:26;6.80;99.90
64715;DHT22;51144;53.002;6.506;2023-04-01T18:36:59;6.80;99.90
64715;DHT22;51144;53.002;6.506;2023-04-01T18:39:45;6.80;99.90
64715;DHT22;51144;53.002;6.506;2023-04-01T18:50:51;6.70;99.90
64715;DHT22;51144;53.002;6.506;2023-04-01T18:56:07;6.70;99.90
64715;DHT22;51144;53.002;6.506;2023-04-01T18:58:34;6.60;99.90
64715;DHT22;51144;53.002;6.506;2023-04-01T19:04:02;6.60;99.90
64715;DHT22;51144;53.002;6.506;2023-04-01T19:06:33;6.70;99.90
64715;DHT22;51144;53.002;6.506;2023-04-01T19:10:01;6.70;99.90
64715;DHT22;51144;53.002;6.506;2023-04-01T19:17:58;6.60;99.90
64715;DHT22;51144;53.002;6.506;2023-04-01T19:21:14;6.60;99.90
64715;DHT22;51144;53.002;6.506;2023-04-01T19:24:04;6.60;99.90
64715;DHT22;51144;53.002;6.506;2023-04-01T19:32:32;6.60;99.90
64715;DHT22;51144;53.002;6.506;2023-04-01T19:46:28;6.50;99.90
64715;DHT22;51144;53.002;6.506;2023-04-01T19:51:55;6.50;99.90
64715;DHT22;51144;53.002;6.506;2023-04-01T19:59:40;6.50;99.90
64715;DHT22;51144;53.002;6.506;2023-04-01T20:04:48;6.40;99.90
64715;DHT22;51144;53.002;6.506;2023-04-01T20:07:24;6.30;99.90
64715;DHT22;51144;53.002;6.506;2023-04-01T20:16:05;6.20;99.90
64715;DHT22;51144;53.002;6.506;2023-04-01T20:18:48;6.20;99.90
64715;DHT22;51144;53.002;6.506;2023-04-01T20:21:24;6.20;99.90
64715;DHT22;51144;53.002;6.506;2023-04-01T20:23:56;6.20;99.90
64715;DHT22;51144;53.002;6.506;2023-04-01T20:26:36;6.20;99.90
64715;DHT22;51144;53.002;6.506;2023-04-01T20:37:37;6.10;99.90
64715;DHT22;51144;53.002;6.506;2023-04-01T20:40:44;6.00;99.90
64715;DHT22;51144;53.002;6.506;2023-04-01T20:46:39;6.00;99.90
64715;DHT22;51144;53.002;6.506;2023-04-01T20:49:30;5.90;99.90
64715;DHT22;51144;53.002;6.506;2023-04-01T20:52:08;5.90;99.90
64715;DHT22;51144;53.002;6.506;2023-04-01T20:57:25;5.90;99.90
64715;DHT22;51144;53.002;6.506;2023-04-01T21:00:18;5.90;99.90
64715;DHT22;51144;53.002;6.506;2023-04-01T21:05:31;6.00;99.90
64715;DHT22;51144;53.002;6.506;2023-04-01T21:08:20;5.90;99.90
64715;DHT22;51144;53.002;6.506;2023-04-01T21:16:36;5.90;99.90
64715;DHT22;51144;53.002;6.506;2023-04-01T21:29:38;5.80;99.90
64715;DHT22;51144;53.002;6.506;2023-04-01T21:35:10;5.80;99.90
64715;DHT22;51144;53.002;6.506;2023-04-01T21:43:39;5.80;99.90
64715;DHT22;51144;53.002;6.506;2023-04-01T21:54:50;5.80;99.90
64715;DHT22;51144;53.002;6.506;2023-04-01T22:00:24;5.70;99.90
64715;DHT22;51144;53.002;6.506;2023-04-01T22:05:30;5.70;99.90
64715;DHT22;51144;53.002;6.506;2023-04-01T22:08:08;5.70;99.90
64715;DHT22;51144;53.002;6.506;2023-04-01T22:10:46;5.70;99.90
64715;DHT22;51144;53.002;6.506;2023-04-01T22:13:22;5.60;99.90
64715;DHT22;51144;53.002;6.506;2023-04-01T22:21:07;5.60;99.90
64715;DHT22;51144;53.002;6.506;2023-04-01T22:26:37;5.50;99.90
64715;DHT22;51144;53.002;6.506;2023-04-01T22:37:04;5.50;99.90
64715;DHT22;51144;53.002;6.506;2023-04-01T22:43:01;5.40;99.90
64715;DHT22;51144;53.002;6.506;2023-04-01T22:48:22;5.40;99.90
64715;DHT22;51144;53.002;6.506;2023-04-01T22:54:27;5.40;99.90
64715;DHT22;51144;53.002;6.506;2023-04-01T22:59:39;5.30;99.90
64715;DHT22;51144;53.002;6.506;2023-04-01T23:02:28;5.30;99.90
64715;DHT22;51144;53.002;6.506;2023-04-01T23:05:04;5.30;99.90
64715;DHT22;51144;53.002;6.506;2023-04-01T23:10:23;5.20;99.90
64715;DHT22;51144;53.002;6.506;2023-04-01T23:12:52;5.20;99.90
64715;DHT22;51144;53.002;6.506;2023-04-01T23:15:20;5.10;99.90
64715;DHT22;51144;53.002;6.506;2023-04-01T23:23:38;5.00;99.90
64715;DHT22;51144;53.002;6.506;2023-04-01T23:28:54;4.90;99.90
64715;DHT22;51144;53.002;6.506;2023-04-01T23:34:02;4.90;99.90
64715;DHT22;51144;53.002;6.506;2023-04-01T23:36:30;4.90;99.90
64715;DHT22;51144;53.002;6.506;2023-04-01T23:38:58;4.90;99.90
64715;DHT22;51144;53.002;6.506;2023-04-01T23:41:29;4.90;99.90
64715;DHT22;51144;53.002;6.506;2023-04-01T23:44:08;4.90;99.90
64715;DHT22;51144;53.002;6.506;2023-04-01T23:46:36;4.90;99.90
64715;DHT22;51144;53.002;6.506;2023-04-01T23:49:03;4.90;99.90
64715;DHT22;51144;53.002;6.506;2023-04-01T23:51:39;4.90;99.90
64715;DHT22;51144;53.002;6.506;2023-04-01T23:54:19;4.80;99.90
64715;DHT22;51144;53.002;6.506;2023-04-01T23:56:52;4.80;99.90
64715;DHT22;51144;53.002;6.506;2023-04-01T23:59:26;4.60;99.90
